sensor_id;sensor_type;location;lat;lon;timestamp;P1;durP1;ratioP1;P2;durP2;ratioP2
75499;SDS011;64076;51.466;7.260;2023-11-21T00:02:04;13.90;;;8.88;;
75499;SDS011;64076;51.466;7.260;2023-11-21T00:04:29;14.55;;;8.93;;
75499;SDS011;64076;51.466;7.260;2023-11-21T00:06:55;12.70;;;8.60;;
75499;SDS011;64076;51.466;7.260;2023-11-21T00:09:20;14.23;;;8.37;;
75499;SDS011;64076;51.466;7.260;2023-11-21T00:11:46;14.07;;;8.40;;
75499;SDS011;64076;51.466;7.260;2023-11-21T00:14:12;14.60;;;8.90;;
75499;SDS011;64076;51.466;7.260;2023-11-21T00:16:39;13.00;;;8.88;;
75499;SDS011;64076;51.466;7.260;2023-11-21T00:19:05;12.57;;;8.30;;
75499;SDS011;64076;51.466;7.260;2023-11-21T00:21:31;13.57;;;8.30;;
75499;SDS011;64076;51.466;7.260;2023-11-21T00:23:56;13.60;;;8.97;;
75499;SDS011;64076;51.466;7.260;2023-11-21T00:26:22;12.60;;;8.20;;
75499;SDS011;64076;51.466;7.260;2023-11-21T00:28:47;12.52;;;8.55;;
75499;SDS011;64076;51.466;7.260;2023-11-21T00:31:13;17.20;;;9.40;;
75499;SDS011;64076;51.466;7.260;2023-11-21T00:33:38;12.90;;;8.77;;
75499;SDS011;64076;51.466;7.260;2023-11-21T00:36:04;12.88;;;8.80;;
75499;SDS011;64076;51.466;7.260;2023-11-21T00:38:31;13.00;;;8.80;;
75499;SDS011;64076;51.466;7.260;2023-11-21T00:40:56;13.77;;;8.40;;
75499;SDS011;64076;51.466;7.260;2023-11-21T00:43:22;13.53;;;8.77;;
75499;SDS011;64076;51.466;7.260;2023-11-21T00:45:48;12.77;;;8.80;;
75499;SDS011;64076;51.466;7.260;2023-11-21T00:48:16;14.55;;;8.93;;
75499;SDS011;64076;51.466;7.260;2023-11-21T00:50:43;14.70;;;8.65;;
75499;SDS011;64076;51.466;7.260;2023-11-21T00:53:08;14.77;;;9.07;;
75499;SDS011;64076;51.466;7.260;2023-11-21T00:55:34;15.82;;;8.85;;
75499;SDS011;64076;51.466;7.260;2023-11-21T00:58:00;13.27;;;8.73;;
75499;SDS011;64076;51.466;7.260;2023-11-21T01:00:28;15.82;;;9.38;;
75499;SDS011;64076;51.466;7.260;2023-11-21T01:02:54;12.27;;;8.77;;
75499;SDS011;64076;51.466;7.260;2023-11-21T01:05:20;13.63;;;8.75;;
75499;SDS011;64076;51.466;7.260;2023-11-21T01:07:45;16.23;;;9.50;;
75499;SDS011;64076;51.466;7.260;2023-11-21T01:10:11;13.88;;;9.13;;
75499;SDS011;64076;51.466;7.260;2023-11-21T01:12:37;13.93;;;8.87;;
75499;SDS011;64076;51.466;7.260;2023-11-21T01:15:03;11.88;;;8.73;;
75499;SDS011;64076;51.466;7.260;2023-11-21T01:17:32;14.25;;;9.57;;
75499;SDS011;64076;51.466;7.260;2023-11-21T01:20:02;13.10;;;8.70;;
75499;SDS011;64076;51.466;7.260;2023-11-21T01:22:31;13.85;;;9.82;;
75499;SDS011;64076;51.466;7.260;2023-11-21T01:24:56;14.00;;;9.25;;
75499;SDS011;64076;51.466;7.260;2023-11-21T01:27:22;13.37;;;9.27;;
75499;SDS011;64076;51.466;7.260;2023-11-21T01:29:48;14.07;;;9.70;;
75499;SDS011;64076;51.466;7.260;2023-11-21T01:32:13;14.57;;;9.80;;
75499;SDS011;64076;51.466;7.260;2023-11-21T01:34:39;15.60;;;9.67;;
75499;SDS011;64076;51.466;7.260;2023-11-21T01:37:05;16.10;;;10.43;;
75499;SDS011;64076;51.466;7.260;2023-11-21T01:39:30;15.80;;;9.90;;
75499;SDS011;64076;51.466;7.260;2023-11-21T01:41:56;13.32;;;9.48;;
75499;SDS011;64076;51.466;7.260;2023-11-21T01:44:23;15.05;;;10.07;;
75499;SDS011;64076;51.466;7.260;2023-11-21T01:46:50;16.63;;;10.13;;
75499;SDS011;64076;51.466;7.260;2023-11-21T01:49:16;15.30;;;10.17;;
75499;SDS011;64076;51.466;7.260;2023-11-21T01:51:43;14.63;;;9.75;;
75499;SDS011;64076;51.466;7.260;2023-11-21T01:54:14;14.65;;;9.93;;
75499;SDS011;64076;51.466;7.260;2023-11-21T01:56:42;16.45;;;9.52;;
75499;SDS011;64076;51.466;7.260;2023-11-21T01:59:09;16.42;;;10.23;;
75499;SDS011;64076;51.466;7.260;2023-11-21T02:01:36;15.50;;;10.27;;
75499;SDS011;64076;51.466;7.260;2023-11-21T02:04:02;13.95;;;9.48;;
75499;SDS011;64076;51.466;7.260;2023-11-21T02:06:27;15.00;;;10.30;;
75499;SDS011;64076;51.466;7.260;2023-11-21T02:08:56;14.55;;;9.80;;
75499;SDS011;64076;51.466;7.260;2023-11-21T02:11:21;14.98;;;10.50;;
75499;SDS011;64076;51.466;7.260;2023-11-21T02:13:47;15.27;;;10.47;;
75499;SDS011;64076;51.466;7.260;2023-11-21T02:16:15;15.10;;;9.82;;
75499;SDS011;64076;51.466;7.260;2023-11-21T02:18:40;13.13;;;9.17;;
75499;SDS011;64076;51.466;7.260;2023-11-21T02:21:06;13.32;;;10.05;;
75499;SDS011;64076;51.466;7.260;2023-11-21T02:23:32;17.52;;;10.18;;
75499;SDS011;64076;51.466;7.260;2023-11-21T02:25:58;15.47;;;9.60;;
75499;SDS011;64076;51.466;7.260;2023-11-21T02:28:24;15.40;;;10.43;;
75499;SDS011;64076;51.466;7.260;2023-11-21T02:30:53;14.43;;;9.77;;
75499;SDS011;64076;51.466;7.260;2023-11-21T02:33:23;16.58;;;10.77;;
75499;SDS011;64076;51.466;7.260;2023-11-21T02:35:48;15.17;;;10.40;;
75499;SDS011;64076;51.466;7.260;2023-11-21T02:38:14;15.15;;;10.50;;
75499;SDS011;64076;51.466;7.260;2023-11-21T02:40:40;16.27;;;10.45;;
75499;SDS011;64076;51.466;7.260;2023-11-21T02:43:06;16.83;;;10.27;;
75499;SDS011;64076;51.466;7.260;2023-11-21T02:45:32;16.35;;;10.25;;
75499;SDS011;64076;51.466;7.260;2023-11-21T02:47:58;15.57;;;10.80;;
75499;SDS011;64076;51.466;7.260;2023-11-21T02:50:24;17.45;;;10.25;;
75499;SDS011;64076;51.466;7.260;2023-11-21T02:52:49;15.37;;;10.43;;
75499;SDS011;64076;51.466;7.260;2023-11-21T02:55:16;14.15;;;9.75;;
75499;SDS011;64076;51.466;7.260;2023-11-21T02:57:41;16.60;;;10.30;;
75499;SDS011;64076;51.466;7.260;2023-11-21T03:00:07;17.88;;;10.85;;
75499;SDS011;64076;51.466;7.260;2023-11-21T03:02:37;14.90;;;10.07;;
75499;SDS011;64076;51.466;7.260;2023-11-21T03:05:03;15.47;;;10.10;;
75499;SDS011;64076;51.466;7.260;2023-11-21T03:07:30;16.83;;;10.27;;
75499;SDS011;64076;51.466;7.260;2023-11-21T03:09:55;17.00;;;10.87;;
75499;SDS011;64076;51.466;7.260;2023-11-21T03:12:21;16.33;;;10.48;;
75499;SDS011;64076;51.466;7.260;2023-11-21T03:14:46;16.37;;;10.47;;
75499;SDS011;64076;51.466;7.260;2023-11-21T03:17:12;16.25;;;10.70;;
75499;SDS011;64076;51.466;7.260;2023-11-21T03:19:40;16.33;;;10.77;;
75499;SDS011;64076;51.466;7.260;2023-11-21T03:22:06;16.30;;;10.27;;
75499;SDS011;64076;51.466;7.260;2023-11-21T03:24:32;14.25;;;10.05;;
75499;SDS011;64076;51.466;7.260;2023-11-21T03:26:57;15.07;;;10.37;;
75499;SDS011;64076;51.466;7.260;2023-11-21T03:29:23;17.63;;;10.73;;
75499;SDS011;64076;51.466;7.260;2023-11-21T03:31:48;18.00;;;10.80;;
75499;SDS011;64076;51.466;7.260;2023-11-21T03:34:24;17.27;;;10.53;;
75499;SDS011;64076;51.466;7.260;2023-11-21T03:36:53;16.65;;;10.63;;
75499;SDS011;64076;51.466;7.260;2023-11-21T03:39:21;18.80;;;10.98;;
75499;SDS011;64076;51.466;7.260;2023-11-21T03:41:47;17.00;;;10.53;;
75499;SDS011;64076;51.466;7.260;2023-11-21T03:44:13;16.58;;;10.73;;
75499;SDS011;64076;51.466;7.260;2023-11-21T03:46:39;15.80;;;10.85;;
75499;SDS011;64076;51.466;7.260;2023-11-21T03:49:05;18.37;;;11.30;;
75499;SDS011;64076;51.466;7.260;2023-11-21T03:51:30;17.83;;;10.57;;
75499;SDS011;64076;51.466;7.260;2023-11-21T03:53:56;14.57;;;10.40;;
75499;SDS011;64076;51.466;7.260;2023-11-21T03:56:22;17.25;;;11.10;;
75499;SDS011;64076;51.466;7.260;2023-11-21T03:58:48;17.63;;;10.93;;
75499;SDS011;64076;51.466;7.260;2023-11-21T04:01:23;17.30;;;11.48;;
75499;SDS011;64076;51.466;7.260;2023-11-21T04:03:49;17.38;;;11.50;;
75499;SDS011;64076;51.466;7.260;2023-11-21T04:06:15;18.75;;;11.30;;
75499;SDS011;64076;51.466;7.260;2023-11-21T04:08:42;18.42;;;10.98;;
75499;SDS011;64076;51.466;7.260;2023-11-21T04:11:11;16.97;;;10.83;;
75499;SDS011;64076;51.466;7.260;2023-11-21T04:13:37;16.67;;;11.25;;
75499;SDS011;64076;51.466;7.260;2023-11-21T04:16:04;18.65;;;11.40;;
75499;SDS011;64076;51.466;7.260;2023-11-21T04:18:30;15.93;;;11.05;;
75499;SDS011;64076;51.466;7.260;2023-11-21T04:20:56;19.57;;;11.80;;
75499;SDS011;64076;51.466;7.260;2023-11-21T04:23:22;17.93;;;11.03;;
75499;SDS011;64076;51.466;7.260;2023-11-21T04:25:47;18.00;;;11.60;;
75499;SDS011;64076;51.466;7.260;2023-11-21T04:28:13;18.80;;;10.50;;
75499;SDS011;64076;51.466;7.260;2023-11-21T04:30:38;16.23;;;10.73;;
75499;SDS011;64076;51.466;7.260;2023-11-21T04:33:04;16.08;;;10.65;;
75499;SDS011;64076;51.466;7.260;2023-11-21T04:35:30;18.80;;;11.17;;
75499;SDS011;64076;51.466;7.260;2023-11-21T04:37:55;19.42;;;12.10;;
75499;SDS011;64076;51.466;7.260;2023-11-21T04:40:22;17.90;;;11.13;;
75499;SDS011;64076;51.466;7.260;2023-11-21T04:42:47;18.48;;;11.52;;
75499;SDS011;64076;51.466;7.260;2023-11-21T04:45:13;19.57;;;11.47;;
75499;SDS011;64076;51.466;7.260;2023-11-21T04:47:39;18.40;;;11.73;;
75499;SDS011;64076;51.466;7.260;2023-11-21T04:50:04;21.70;;;12.07;;
75499;SDS011;64076;51.466;7.260;2023-11-21T04:52:31;18.85;;;11.73;;
75499;SDS011;64076;51.466;7.260;2023-11-21T04:54:58;22.30;;;11.93;;
75499;SDS011;64076;51.466;7.260;2023-11-21T04:57:25;20.17;;;11.83;;
75499;SDS011;64076;51.466;7.260;2023-11-21T04:59:53;17.77;;;11.48;;
75499;SDS011;64076;51.466;7.260;2023-11-21T05:02:19;19.05;;;11.50;;
75499;SDS011;64076;51.466;7.260;2023-11-21T05:04:45;21.63;;;12.75;;
75499;SDS011;64076;51.466;7.260;2023-11-21T05:07:14;19.37;;;11.97;;
75499;SDS011;64076;51.466;7.260;2023-11-21T05:09:44;17.30;;;12.27;;
75499;SDS011;64076;51.466;7.260;2023-11-21T05:12:11;16.90;;;11.23;;
75499;SDS011;64076;51.466;7.260;2023-11-21T05:14:37;16.63;;;10.88;;
75499;SDS011;64076;51.466;7.260;2023-11-21T05:17:02;21.47;;;12.60;;
75499;SDS011;64076;51.466;7.260;2023-11-21T05:19:29;19.15;;;11.43;;
75499;SDS011;64076;51.466;7.260;2023-11-21T05:21:54;17.80;;;11.57;;
75499;SDS011;64076;51.466;7.260;2023-11-21T05:24:20;19.45;;;12.10;;
75499;SDS011;64076;51.466;7.260;2023-11-21T05:26:45;16.40;;;11.60;;
75499;SDS011;64076;51.466;7.260;2023-11-21T05:29:11;18.00;;;11.17;;
75499;SDS011;64076;51.466;7.260;2023-11-21T05:31:36;20.27;;;12.45;;
75499;SDS011;64076;51.466;7.260;2023-11-21T05:34:03;20.37;;;12.23;;
75499;SDS011;64076;51.466;7.260;2023-11-21T05:36:30;21.70;;;12.90;;
75499;SDS011;64076;51.466;7.260;2023-11-21T05:38:56;21.73;;;12.73;;
75499;SDS011;64076;51.466;7.260;2023-11-21T05:41:21;19.87;;;12.83;;
75499;SDS011;64076;51.466;7.260;2023-11-21T05:43:48;19.67;;;12.25;;
75499;SDS011;64076;51.466;7.260;2023-11-21T05:46:13;22.13;;;13.07;;
75499;SDS011;64076;51.466;7.260;2023-11-21T05:48:39;20.98;;;13.07;;
75499;SDS011;64076;51.466;7.260;2023-11-21T05:51:05;23.10;;;12.40;;
75499;SDS011;64076;51.466;7.260;2023-11-21T05:53:31;23.58;;;12.70;;
75499;SDS011;64076;51.466;7.260;2023-11-21T05:55:57;19.37;;;12.67;;
75499;SDS011;64076;51.466;7.260;2023-11-21T05:58:22;20.48;;;13.20;;
75499;SDS011;64076;51.466;7.260;2023-11-21T06:00:48;24.97;;;13.57;;
75499;SDS011;64076;51.466;7.260;2023-11-21T06:03:14;20.50;;;12.57;;
75499;SDS011;64076;51.466;7.260;2023-11-21T06:05:43;20.02;;;13.13;;
75499;SDS011;64076;51.466;7.260;2023-11-21T06:08:08;21.37;;;13.17;;
75499;SDS011;64076;51.466;7.260;2023-11-21T06:10:34;17.90;;;12.50;;
75499;SDS011;64076;51.466;7.260;2023-11-21T06:12:59;23.13;;;12.97;;
75499;SDS011;64076;51.466;7.260;2023-11-21T06:15:25;20.07;;;12.53;;
75499;SDS011;64076;51.466;7.260;2023-11-21T06:17:51;19.05;;;11.18;;
75499;SDS011;64076;51.466;7.260;2023-11-21T06:20:17;17.55;;;11.25;;
75499;SDS011;64076;51.466;7.260;2023-11-21T06:22:44;16.87;;;10.13;;
75499;SDS011;64076;51.466;7.260;2023-11-21T06:25:12;18.77;;;10.82;;
75499;SDS011;64076;51.466;7.260;2023-11-21T06:27:40;16.77;;;9.75;;
75499;SDS011;64076;51.466;7.260;2023-11-21T06:30:06;14.05;;;9.38;;
75499;SDS011;64076;51.466;7.260;2023-11-21T06:32:34;15.50;;;9.40;;
75499;SDS011;64076;51.466;7.260;2023-11-21T06:35:01;16.40;;;9.80;;
75499;SDS011;64076;51.466;7.260;2023-11-21T06:37:29;14.93;;;9.50;;
75499;SDS011;64076;51.466;7.260;2023-11-21T06:39:56;13.63;;;8.63;;
75499;SDS011;64076;51.466;7.260;2023-11-21T06:42:23;13.60;;;8.68;;
75499;SDS011;64076;51.466;7.260;2023-11-21T06:44:49;15.20;;;8.50;;
75499;SDS011;64076;51.466;7.260;2023-11-21T06:47:16;12.13;;;8.30;;
75499;SDS011;64076;51.466;7.260;2023-11-21T06:49:42;12.25;;;8.10;;
75499;SDS011;64076;51.466;7.260;2023-11-21T06:52:08;11.98;;;7.75;;
75499;SDS011;64076;51.466;7.260;2023-11-21T06:54:34;11.87;;;7.93;;
75499;SDS011;64076;51.466;7.260;2023-11-21T06:57:00;11.90;;;7.78;;
75499;SDS011;64076;51.466;7.260;2023-11-21T06:59:28;12.32;;;7.60;;
75499;SDS011;64076;51.466;7.260;2023-11-21T07:01:54;12.30;;;7.93;;
75499;SDS011;64076;51.466;7.260;2023-11-21T07:04:19;11.70;;;8.10;;
75499;SDS011;64076;51.466;7.260;2023-11-21T07:06:45;10.87;;;7.33;;
75499;SDS011;64076;51.466;7.260;2023-11-21T07:09:10;12.82;;;7.93;;
75499;SDS011;64076;51.466;7.260;2023-11-21T07:11:36;11.97;;;7.17;;
75499;SDS011;64076;51.466;7.260;2023-11-21T07:14:03;11.05;;;7.55;;
75499;SDS011;64076;51.466;7.260;2023-11-21T07:16:35;10.50;;;7.10;;
75499;SDS011;64076;51.466;7.260;2023-11-21T07:19:04;10.68;;;7.28;;
75499;SDS011;64076;51.466;7.260;2023-11-21T07:21:31;11.10;;;7.60;;
75499;SDS011;64076;51.466;7.260;2023-11-21T07:23:58;11.50;;;7.35;;
75499;SDS011;64076;51.466;7.260;2023-11-21T07:26:23;10.75;;;7.18;;
75499;SDS011;64076;51.466;7.260;2023-11-21T07:28:50;11.10;;;7.38;;
75499;SDS011;64076;51.466;7.260;2023-11-21T07:31:16;10.97;;;7.43;;
75499;SDS011;64076;51.466;7.260;2023-11-21T07:33:41;11.20;;;6.77;;
75499;SDS011;64076;51.466;7.260;2023-11-21T07:36:07;10.65;;;7.10;;
75499;SDS011;64076;51.466;7.260;2023-11-21T07:38:33;11.30;;;6.93;;
75499;SDS011;64076;51.466;7.260;2023-11-21T07:40:59;11.75;;;7.35;;
75499;SDS011;64076;51.466;7.260;2023-11-21T07:43:26;11.27;;;6.93;;
75499;SDS011;64076;51.466;7.260;2023-11-21T07:45:52;12.13;;;7.40;;
75499;SDS011;64076;51.466;7.260;2023-11-21T07:48:17;11.40;;;7.13;;
75499;SDS011;64076;51.466;7.260;2023-11-21T07:50:43;10.90;;;6.93;;
75499;SDS011;64076;51.466;7.260;2023-11-21T07:53:08;10.10;;;6.53;;
75499;SDS011;64076;51.466;7.260;2023-11-21T07:55:34;9.88;;;6.70;;
75499;SDS011;64076;51.466;7.260;2023-11-21T07:58:01;13.23;;;7.00;;
75499;SDS011;64076;51.466;7.260;2023-11-21T08:00:26;11.70;;;6.70;;
75499;SDS011;64076;51.466;7.260;2023-11-21T08:02:55;9.80;;;6.40;;
75499;SDS011;64076;51.466;7.260;2023-11-21T08:05:20;9.43;;;6.47;;
75499;SDS011;64076;51.466;7.260;2023-11-21T08:07:46;9.65;;;6.10;;
75499;SDS011;64076;51.466;7.260;2023-11-21T08:10:12;10.63;;;7.17;;
75499;SDS011;64076;51.466;7.260;2023-11-21T08:12:37;10.70;;;6.78;;
75499;SDS011;64076;51.466;7.260;2023-11-21T08:15:04;9.97;;;6.70;;
75499;SDS011;64076;51.466;7.260;2023-11-21T08:17:30;11.88;;;7.05;;
75499;SDS011;64076;51.466;7.260;2023-11-21T08:19:57;10.80;;;6.85;;
75499;SDS011;64076;51.466;7.260;2023-11-21T08:22:23;8.70;;;6.47;;
75499;SDS011;64076;51.466;7.260;2023-11-21T08:24:49;8.82;;;6.13;;
75499;SDS011;64076;51.466;7.260;2023-11-21T08:27:15;9.73;;;6.77;;
75499;SDS011;64076;51.466;7.260;2023-11-21T08:29:41;11.15;;;6.13;;
75499;SDS011;64076;51.466;7.260;2023-11-21T08:32:07;9.60;;;6.35;;
75499;SDS011;64076;51.466;7.260;2023-11-21T08:34:33;9.47;;;6.37;;
75499;SDS011;64076;51.466;7.260;2023-11-21T08:36:58;11.20;;;6.82;;
75499;SDS011;64076;51.466;7.260;2023-11-21T08:39:24;11.67;;;6.90;;
75499;SDS011;64076;51.466;7.260;2023-11-21T08:41:51;10.88;;;6.75;;
75499;SDS011;64076;51.466;7.260;2023-11-21T08:44:17;12.37;;;7.10;;
75499;SDS011;64076;51.466;7.260;2023-11-21T08:46:43;11.35;;;7.60;;
75499;SDS011;64076;51.466;7.260;2023-11-21T08:49:10;12.05;;;7.18;;
75499;SDS011;64076;51.466;7.260;2023-11-21T08:51:37;12.47;;;7.57;;
75499;SDS011;64076;51.466;7.260;2023-11-21T08:54:02;11.85;;;7.40;;
75499;SDS011;64076;51.466;7.260;2023-11-21T08:56:32;13.10;;;7.50;;
75499;SDS011;64076;51.466;7.260;2023-11-21T08:58:57;13.00;;;7.57;;
75499;SDS011;64076;51.466;7.260;2023-11-21T09:01:23;13.93;;;8.10;;
75499;SDS011;64076;51.466;7.260;2023-11-21T09:03:49;13.60;;;7.85;;
75499;SDS011;64076;51.466;7.260;2023-11-21T09:06:15;16.80;;;8.20;;
75499;SDS011;64076;51.466;7.260;2023-11-21T09:08:40;13.40;;;8.03;;
75499;SDS011;64076;51.466;7.260;2023-11-21T09:11:07;15.07;;;8.63;;
75499;SDS011;64076;51.466;7.260;2023-11-21T09:13:33;13.85;;;8.23;;
75499;SDS011;64076;51.466;7.260;2023-11-21T09:15:59;14.03;;;8.37;;
75499;SDS011;64076;51.466;7.260;2023-11-21T09:18:25;15.38;;;8.73;;
75499;SDS011;64076;51.466;7.260;2023-11-21T09:20:50;16.20;;;8.80;;
75499;SDS011;64076;51.466;7.260;2023-11-21T09:23:16;17.17;;;9.75;;
75499;SDS011;64076;51.466;7.260;2023-11-21T09:25:42;16.30;;;9.33;;
75499;SDS011;64076;51.466;7.260;2023-11-21T09:28:11;16.58;;;9.63;;
75499;SDS011;64076;51.466;7.260;2023-11-21T09:30:36;15.43;;;9.40;;
75499;SDS011;64076;51.466;7.260;2023-11-21T09:33:03;16.50;;;9.43;;
75499;SDS011;64076;51.466;7.260;2023-11-21T09:35:32;15.98;;;9.02;;
75499;SDS011;64076;51.466;7.260;2023-11-21T09:37:57;16.83;;;9.80;;
75499;SDS011;64076;51.466;7.260;2023-11-21T09:40:23;20.25;;;10.40;;
75499;SDS011;64076;51.466;7.260;2023-11-21T09:42:52;17.57;;;9.70;;
75499;SDS011;64076;51.466;7.260;2023-11-21T09:45:27;18.58;;;10.60;;
75499;SDS011;64076;51.466;7.260;2023-11-21T09:47:54;20.38;;;10.98;;
75499;SDS011;64076;51.466;7.260;2023-11-21T09:50:21;20.65;;;11.57;;
75499;SDS011;64076;51.466;7.260;2023-11-21T09:55:35;19.63;;;10.77;;
75499;SDS011;64076;51.466;7.260;2023-11-21T09:58:03;19.90;;;10.95;;
75499;SDS011;64076;51.466;7.260;2023-11-21T10:00:32;21.60;;;11.90;;
75499;SDS011;64076;51.466;7.260;2023-11-21T10:03:01;19.15;;;11.57;;
75499;SDS011;64076;51.466;7.260;2023-11-21T10:05:27;20.77;;;11.88;;
75499;SDS011;64076;51.466;7.260;2023-11-21T10:07:53;20.63;;;11.50;;
75499;SDS011;64076;51.466;7.260;2023-11-21T10:10:22;21.35;;;10.98;;
75499;SDS011;64076;51.466;7.260;2023-11-21T10:12:50;23.48;;;11.32;;
75499;SDS011;64076;51.466;7.260;2023-11-21T10:15:24;20.10;;;11.17;;
75499;SDS011;64076;51.466;7.260;2023-11-21T10:17:53;22.35;;;11.63;;
75499;SDS011;64076;51.466;7.260;2023-11-21T10:20:20;21.65;;;12.75;;
75499;SDS011;64076;51.466;7.260;2023-11-21T10:22:48;22.02;;;12.57;;
75499;SDS011;64076;51.466;7.260;2023-11-21T10:25:14;21.83;;;12.17;;
75499;SDS011;64076;51.466;7.260;2023-11-21T10:27:40;24.95;;;13.13;;
75499;SDS011;64076;51.466;7.260;2023-11-21T10:30:06;22.20;;;12.75;;
75499;SDS011;64076;51.466;7.260;2023-11-21T10:32:36;21.40;;;12.10;;
75499;SDS011;64076;51.466;7.260;2023-11-21T10:35:05;22.75;;;12.32;;
75499;SDS011;64076;51.466;7.260;2023-11-21T10:37:39;22.63;;;12.65;;
75499;SDS011;64076;51.466;7.260;2023-11-21T10:40:08;24.45;;;13.20;;
75499;SDS011;64076;51.466;7.260;2023-11-21T10:42:37;23.40;;;12.65;;
75499;SDS011;64076;51.466;7.260;2023-11-21T10:45:03;24.03;;;13.20;;
75499;SDS011;64076;51.466;7.260;2023-11-21T10:47:34;23.88;;;12.73;;
75499;SDS011;64076;51.466;7.260;2023-11-21T10:50:01;23.38;;;12.65;;
75499;SDS011;64076;51.466;7.260;2023-11-21T10:52:27;24.08;;;13.32;;
75499;SDS011;64076;51.466;7.260;2023-11-21T10:54:52;24.40;;;12.77;;
75499;SDS011;64076;51.466;7.260;2023-11-21T10:57:18;24.57;;;13.13;;
75499;SDS011;64076;51.466;7.260;2023-11-21T10:59:47;23.17;;;12.80;;
75499;SDS011;64076;51.466;7.260;2023-11-21T11:02:35;24.60;;;13.02;;
75499;SDS011;64076;51.466;7.260;2023-11-21T11:05:00;26.23;;;13.70;;
75499;SDS011;64076;51.466;7.260;2023-11-21T11:07:26;23.05;;;12.63;;
75499;SDS011;64076;51.466;7.260;2023-11-21T11:09:56;25.42;;;13.18;;
75499;SDS011;64076;51.466;7.260;2023-11-21T11:12:24;26.23;;;13.10;;
75499;SDS011;64076;51.466;7.260;2023-11-21T11:14:50;24.08;;;13.05;;
75499;SDS011;64076;51.466;7.260;2023-11-21T11:17:17;22.98;;;12.70;;
75499;SDS011;64076;51.466;7.260;2023-11-21T11:19:45;24.50;;;12.57;;
75499;SDS011;64076;51.466;7.260;2023-11-21T11:22:23;22.45;;;12.35;;
75499;SDS011;64076;51.466;7.260;2023-11-21T11:28:00;23.58;;;12.52;;
75499;SDS011;64076;51.466;7.260;2023-11-21T11:36:37;24.65;;;12.88;;
75499;SDS011;64076;51.466;7.260;2023-11-21T11:41:55;24.50;;;12.57;;
75499;SDS011;64076;51.466;7.260;2023-11-21T11:47:19;23.60;;;12.73;;
75499;SDS011;64076;51.466;7.260;2023-11-21T11:50:09;23.73;;;12.90;;
75499;SDS011;64076;51.466;7.260;2023-11-21T11:52:51;24.17;;;13.00;;
75499;SDS011;64076;51.466;7.260;2023-11-21T11:55:18;24.40;;;13.13;;
75499;SDS011;64076;51.466;7.260;2023-11-21T11:57:47;22.52;;;12.40;;
75499;SDS011;64076;51.466;7.260;2023-11-21T12:00:48;20.83;;;12.40;;
75499;SDS011;64076;51.466;7.260;2023-11-21T12:03:07;23.13;;;13.13;;
75499;SDS011;64076;51.466;7.260;2023-11-21T12:05:34;22.05;;;12.82;;
75499;SDS011;64076;51.466;7.260;2023-11-21T12:08:03;23.08;;;12.65;;
75499;SDS011;64076;51.466;7.260;2023-11-21T12:10:31;24.13;;;13.00;;
75499;SDS011;64076;51.466;7.260;2023-11-21T12:12:59;24.58;;;12.85;;
75499;SDS011;64076;51.466;7.260;2023-11-21T12:15:26;25.40;;;13.73;;
75499;SDS011;64076;51.466;7.260;2023-11-21T12:17:55;24.65;;;12.82;;
75499;SDS011;64076;51.466;7.260;2023-11-21T12:20:22;27.20;;;13.65;;
75499;SDS011;64076;51.466;7.260;2023-11-21T12:22:49;21.98;;;12.55;;
75499;SDS011;64076;51.466;7.260;2023-11-21T12:25:16;22.58;;;12.23;;
75499;SDS011;64076;51.466;7.260;2023-11-21T12:27:48;22.53;;;11.50;;
75499;SDS011;64076;51.466;7.260;2023-11-21T12:30:16;21.40;;;11.85;;
75499;SDS011;64076;51.466;7.260;2023-11-21T12:32:43;22.23;;;11.57;;
75499;SDS011;64076;51.466;7.260;2023-11-21T12:35:11;20.10;;;11.50;;
75499;SDS011;64076;51.466;7.260;2023-11-21T12:37:37;21.38;;;11.05;;
75499;SDS011;64076;51.466;7.260;2023-11-21T12:40:05;17.20;;;10.37;;
75499;SDS011;64076;51.466;7.260;2023-11-21T12:42:33;17.48;;;10.75;;
75499;SDS011;64076;51.466;7.260;2023-11-21T12:45:06;18.48;;;10.43;;
75499;SDS011;64076;51.466;7.260;2023-11-21T12:47:42;17.45;;;9.77;;
75499;SDS011;64076;51.466;7.260;2023-11-21T12:50:09;17.05;;;9.60;;
75499;SDS011;64076;51.466;7.260;2023-11-21T12:52:40;16.57;;;10.27;;
75499;SDS011;64076;51.466;7.260;2023-11-21T12:55:21;17.60;;;10.35;;
75499;SDS011;64076;51.466;7.260;2023-11-21T12:57:54;15.40;;;9.65;;
75499;SDS011;64076;51.466;7.260;2023-11-21T13:00:31;19.08;;;9.27;;
75499;SDS011;64076;51.466;7.260;2023-11-21T13:03:01;14.38;;;8.93;;
75499;SDS011;64076;51.466;7.260;2023-11-21T13:05:30;13.00;;;8.20;;
75499;SDS011;64076;51.466;7.260;2023-11-21T13:07:58;16.08;;;8.45;;
75499;SDS011;64076;51.466;7.260;2023-11-21T13:10:27;12.32;;;7.82;;
75499;SDS011;64076;51.466;7.260;2023-11-21T13:12:56;13.50;;;8.18;;
75499;SDS011;64076;51.466;7.260;2023-11-21T13:15:29;11.68;;;7.78;;
75499;SDS011;64076;51.466;7.260;2023-11-21T13:17:56;12.37;;;8.13;;
75499;SDS011;64076;51.466;7.260;2023-11-21T13:20:22;10.35;;;7.32;;
75499;SDS011;64076;51.466;7.260;2023-11-21T13:22:50;12.45;;;7.85;;
75499;SDS011;64076;51.466;7.260;2023-11-21T13:25:28;11.15;;;6.95;;
75499;SDS011;64076;51.466;7.260;2023-11-21T13:27:54;11.45;;;7.53;;
75499;SDS011;64076;51.466;7.260;2023-11-21T13:30:20;10.40;;;6.90;;
75499;SDS011;64076;51.466;7.260;2023-11-21T13:32:56;10.05;;;6.97;;
75499;SDS011;64076;51.466;7.260;2023-11-21T13:35:22;10.63;;;6.60;;
75499;SDS011;64076;51.466;7.260;2023-11-21T13:38:02;10.63;;;6.63;;
75499;SDS011;64076;51.466;7.260;2023-11-21T13:40:35;9.15;;;6.50;;
75499;SDS011;64076;51.466;7.260;2023-11-21T13:43:11;11.53;;;6.93;;
75499;SDS011;64076;51.466;7.260;2023-11-21T13:45:38;11.52;;;6.45;;
75499;SDS011;64076;51.466;7.260;2023-11-21T13:48:08;8.90;;;6.20;;
75499;SDS011;64076;51.466;7.260;2023-11-21T13:50:41;9.05;;;6.30;;
75499;SDS011;64076;51.466;7.260;2023-11-21T13:53:21;9.00;;;6.40;;
75499;SDS011;64076;51.466;7.260;2023-11-21T13:55:53;8.27;;;6.23;;
75499;SDS011;64076;51.466;7.260;2023-11-21T13:58:19;9.65;;;6.32;;
75499;SDS011;64076;51.466;7.260;2023-11-21T14:00:51;9.25;;;5.93;;
75499;SDS011;64076;51.466;7.260;2023-11-21T14:03:22;9.88;;;6.47;;
75499;SDS011;64076;51.466;7.260;2023-11-21T14:05:50;10.17;;;6.43;;
75499;SDS011;64076;51.466;7.260;2023-11-21T14:08:23;9.77;;;5.97;;
75499;SDS011;64076;51.466;7.260;2023-11-21T14:10:53;8.80;;;5.85;;
75499;SDS011;64076;51.466;7.260;2023-11-21T14:13:24;9.70;;;6.32;;
75499;SDS011;64076;51.466;7.260;2023-11-21T14:15:50;8.18;;;5.72;;
75499;SDS011;64076;51.466;7.260;2023-11-21T14:18:22;9.15;;;6.00;;
75499;SDS011;64076;51.466;7.260;2023-11-21T14:20:56;9.57;;;6.13;;
75499;SDS011;64076;51.466;7.260;2023-11-21T14:23:22;8.88;;;6.40;;
75499;SDS011;64076;51.466;7.260;2023-11-21T14:25:48;8.32;;;6.03;;
75499;SDS011;64076;51.466;7.260;2023-11-21T14:28:15;9.13;;;6.03;;
75499;SDS011;64076;51.466;7.260;2023-11-21T14:30:41;8.97;;;6.13;;
75499;SDS011;64076;51.466;7.260;2023-11-21T14:33:07;8.43;;;5.82;;
75499;SDS011;64076;51.466;7.260;2023-11-21T14:35:34;8.60;;;5.63;;
75499;SDS011;64076;51.466;7.260;2023-11-21T14:38:00;9.55;;;5.78;;
75499;SDS011;64076;51.466;7.260;2023-11-21T14:40:29;9.40;;;5.60;;
75499;SDS011;64076;51.466;7.260;2023-11-21T14:43:00;8.45;;;5.28;;
75499;SDS011;64076;51.466;7.260;2023-11-21T14:45:31;9.13;;;5.88;;
75499;SDS011;64076;51.466;7.260;2023-11-21T14:47:57;8.63;;;4.90;;